Sula, MT (59871)

4:35 PM MDT on August 24, 2016 (GMT -0600)
RAWS | | Change Station

Elev 4569 ft 45.82 °N, 113.95 °W | Updated 1 hour ago

Mostly Cloudy
Mostly Cloudy
67.0 °F
Feels Like 67.0 °F
N
6.0
Wind Variable Wind from WNW
Gusts 0.0 mph

Today
High -- | Low -- °F
--% Chance of Precip.
Yesterday
High -- | Low -- °F
Precip. -- in
Pressure 30.27 in
Visibility 10.0 miles
Clouds Few 7000 ft
Mostly Cloudy 9000 ft
Dew Point 37.0 °F
Humidity 33%
Rainfall in
Snow Depth Not available.
6:47 AM 8:27 PM
Waning Gibbous, 52% visible
METAR KBTM 242153Z AUTO 01011G16KT 10SM FEW070 BKN090 17/01 A3033 RMK AO2 SLP249 T01670006
Pressure 30.27 in
Visibility 10.0 miles
Clouds Few 7000 ft
Mostly Cloudy 9000 ft
Dew Point 37.0 °F
Humidity 33%
Rainfall in
Snow Depth Not available.
6:47 AM 8:27 PM
Waning Gibbous, 52% visible
METAR KBTM 242153Z AUTO 01011G16KT 10SM FEW070 BKN090 17/01 A3033 RMK AO2 SLP249 T01670006

10-Day Weather Forecast

Almanac

Astronomy

Aug. 24, 2016 Rise Set
Actual Time
Civil Twilight
Nautical Twilight
Astronomical Twilight
Moon
Length of Visible Light
Length of Day
Tomorrow will be .
, % of the Moon is Illuminated

Today's Extremes

State Highs State Lows

Community

WunderPhotos

Upload Photos

1,934,728 photos uploaded!

WunderBlog® & News

Nearby

Air Quality

  Air Quality AQ Index Pollutant
Not available.

Snow Depth

Station Depth Elevation

Earthquake Activity

City Distance Mag. Time & Date
Minimum magnitude displayed is 2.5.

Coastal Water Temperatures

Place Temperature

Stations

Nearby Weather Stations

Station Location Temp. Windchill Dew Point Humidity Wind Precip. Elev Updated Type
                   

Watches & Warnings

There are currently no watches in effect.